sensor_id;sensor_type;location;lat;lon;timestamp;P1;durP1;ratioP1;P2;durP2;ratioP2
31128;SDS011;17777;48.770;8.944;2023-12-07T00:01:50;4.22;;;3.60;;
31128;SDS011;17777;48.770;8.944;2023-12-07T00:04:16;7.90;;;3.70;;
31128;SDS011;17777;48.770;8.944;2023-12-07T00:06:42;5.55;;;3.88;;
31128;SDS011;17777;48.770;8.944;2023-12-07T00:09:08;5.03;;;4.13;;
31128;SDS011;17777;48.770;8.944;2023-12-07T00:11:33;5.55;;;3.90;;
31128;SDS011;17777;48.770;8.944;2023-12-07T00:13:59;4.95;;;4.03;;
31128;SDS011;17777;48.770;8.944;2023-12-07T00:16:25;4.57;;;3.80;;
31128;SDS011;17777;48.770;8.944;2023-12-07T00:18:51;5.47;;;4.05;;
31128;SDS011;17777;48.770;8.944;2023-12-07T00:21:16;5.90;;;3.83;;
31128;SDS011;17777;48.770;8.944;2023-12-07T00:23:42;6.03;;;4.03;;
31128;SDS011;17777;48.770;8.944;2023-12-07T00:26:08;5.47;;;4.03;;
31128;SDS011;17777;48.770;8.944;2023-12-07T00:28:35;4.45;;;3.65;;
31128;SDS011;17777;48.770;8.944;2023-12-07T00:31:01;4.50;;;3.75;;
31128;SDS011;17777;48.770;8.944;2023-12-07T00:33:28;5.07;;;3.63;;
31128;SDS011;17777;48.770;8.944;2023-12-07T00:35:53;4.65;;;3.75;;
31128;SDS011;17777;48.770;8.944;2023-12-07T00:38:19;4.55;;;3.60;;
31128;SDS011;17777;48.770;8.944;2023-12-07T00:40:46;5.28;;;3.97;;
31128;SDS011;17777;48.770;8.944;2023-12-07T00:43:13;5.15;;;3.90;;
31128;SDS011;17777;48.770;8.944;2023-12-07T00:45:38;4.68;;;3.75;;
31128;SDS011;17777;48.770;8.944;2023-12-07T00:48:04;5.55;;;4.25;;
31128;SDS011;17777;48.770;8.944;2023-12-07T00:50:30;5.68;;;4.28;;
31128;SDS011;17777;48.770;8.944;2023-12-07T00:52:56;5.00;;;4.10;;
31128;SDS011;17777;48.770;8.944;2023-12-07T00:55:22;8.20;;;4.53;;
31128;SDS011;17777;48.770;8.944;2023-12-07T00:57:48;6.95;;;4.28;;
31128;SDS011;17777;48.770;8.944;2023-12-07T01:00:13;4.70;;;3.78;;
31128;SDS011;17777;48.770;8.944;2023-12-07T01:02:40;5.90;;;4.35;;
31128;SDS011;17777;48.770;8.944;2023-12-07T01:05:06;6.63;;;4.55;;
31128;SDS011;17777;48.770;8.944;2023-12-07T01:07:32;5.68;;;3.97;;
31128;SDS011;17777;48.770;8.944;2023-12-07T01:09:57;5.68;;;4.03;;
31128;SDS011;17777;48.770;8.944;2023-12-07T01:12:23;6.25;;;4.30;;
31128;SDS011;17777;48.770;8.944;2023-12-07T01:14:49;5.90;;;4.55;;
31128;SDS011;17777;48.770;8.944;2023-12-07T01:17:15;5.78;;;4.05;;
31128;SDS011;17777;48.770;8.944;2023-12-07T01:19:40;6.15;;;3.95;;
31128;SDS011;17777;48.770;8.944;2023-12-07T01:22:07;6.57;;;3.97;;
31128;SDS011;17777;48.770;8.944;2023-12-07T01:24:32;4.53;;;3.65;;
31128;SDS011;17777;48.770;8.944;2023-12-07T01:26:58;5.50;;;3.60;;
31128;SDS011;17777;48.770;8.944;2023-12-07T01:29:24;3.90;;;3.50;;
31128;SDS011;17777;48.770;8.944;2023-12-07T01:31:50;3.97;;;3.20;;
31128;SDS011;17777;48.770;8.944;2023-12-07T01:34:17;6.32;;;3.42;;
31128;SDS011;17777;48.770;8.944;2023-12-07T01:36:43;4.88;;;3.80;;
31128;SDS011;17777;48.770;8.944;2023-12-07T01:39:09;4.35;;;3.47;;
31128;SDS011;17777;48.770;8.944;2023-12-07T01:41:38;5.85;;;3.50;;
31128;SDS011;17777;48.770;8.944;2023-12-07T01:44:04;6.32;;;3.65;;
31128;SDS011;17777;48.770;8.944;2023-12-07T01:46:30;5.97;;;3.53;;
31128;SDS011;17777;48.770;8.944;2023-12-07T01:48:58;4.88;;;3.58;;
31128;SDS011;17777;48.770;8.944;2023-12-07T01:51:24;4.07;;;3.28;;
31128;SDS011;17777;48.770;8.944;2023-12-07T01:53:51;5.50;;;3.55;;
31128;SDS011;17777;48.770;8.944;2023-12-07T01:56:17;4.72;;;3.83;;
31128;SDS011;17777;48.770;8.944;2023-12-07T01:58:44;5.13;;;3.70;;
31128;SDS011;17777;48.770;8.944;2023-12-07T02:01:09;4.82;;;3.47;;
31128;SDS011;17777;48.770;8.944;2023-12-07T02:03:39;4.90;;;3.67;;
31128;SDS011;17777;48.770;8.944;2023-12-07T02:06:05;4.70;;;3.60;;
31128;SDS011;17777;48.770;8.944;2023-12-07T02:08:31;5.05;;;3.58;;
31128;SDS011;17777;48.770;8.944;2023-12-07T02:10:57;4.20;;;3.30;;
31128;SDS011;17777;48.770;8.944;2023-12-07T02:13:23;8.25;;;3.80;;
31128;SDS011;17777;48.770;8.944;2023-12-07T02:15:49;4.20;;;3.38;;
31128;SDS011;17777;48.770;8.944;2023-12-07T02:18:16;6.50;;;3.67;;
31128;SDS011;17777;48.770;8.944;2023-12-07T02:20:54;5.57;;;3.92;;
31128;SDS011;17777;48.770;8.944;2023-12-07T02:23:29;4.72;;;3.58;;
31128;SDS011;17777;48.770;8.944;2023-12-07T02:26:00;4.93;;;3.28;;
31128;SDS011;17777;48.770;8.944;2023-12-07T02:28:29;4.07;;;3.35;;
31128;SDS011;17777;48.770;8.944;2023-12-07T02:30:54;4.20;;;3.28;;
31128;SDS011;17777;48.770;8.944;2023-12-07T02:33:20;4.20;;;3.25;;
31128;SDS011;17777;48.770;8.944;2023-12-07T02:35:47;4.35;;;3.45;;
31128;SDS011;17777;48.770;8.944;2023-12-07T02:38:12;5.35;;;3.80;;
31128;SDS011;17777;48.770;8.944;2023-12-07T02:40:39;5.88;;;3.63;;
31128;SDS011;17777;48.770;8.944;2023-12-07T02:43:06;5.75;;;3.42;;
31128;SDS011;17777;48.770;8.944;2023-12-07T02:45:33;4.60;;;3.53;;
31128;SDS011;17777;48.770;8.944;2023-12-07T02:47:59;5.30;;;3.40;;
31128;SDS011;17777;48.770;8.944;2023-12-07T02:50:25;4.68;;;3.75;;
31128;SDS011;17777;48.770;8.944;2023-12-07T02:52:51;3.90;;;3.20;;
31128;SDS011;17777;48.770;8.944;2023-12-07T02:55:16;3.35;;;2.95;;
31128;SDS011;17777;48.770;8.944;2023-12-07T02:57:42;3.20;;;2.88;;
31128;SDS011;17777;48.770;8.944;2023-12-07T03:00:08;3.78;;;3.17;;
31128;SDS011;17777;48.770;8.944;2023-12-07T03:02:37;4.90;;;3.25;;
31128;SDS011;17777;48.770;8.944;2023-12-07T03:05:05;3.72;;;2.92;;
31128;SDS011;17777;48.770;8.944;2023-12-07T03:07:32;5.03;;;3.75;;
31128;SDS011;17777;48.770;8.944;2023-12-07T03:10:01;4.47;;;3.25;;
31128;SDS011;17777;48.770;8.944;2023-12-07T03:12:28;5.20;;;3.58;;
31128;SDS011;17777;48.770;8.944;2023-12-07T03:14:53;3.35;;;3.00;;
31128;SDS011;17777;48.770;8.944;2023-12-07T03:17:19;3.33;;;3.00;;
31128;SDS011;17777;48.770;8.944;2023-12-07T03:19:45;6.93;;;3.70;;
31128;SDS011;17777;48.770;8.944;2023-12-07T03:22:11;4.53;;;3.45;;
31128;SDS011;17777;48.770;8.944;2023-12-07T03:24:38;5.95;;;3.40;;
31128;SDS011;17777;48.770;8.944;2023-12-07T03:27:05;4.90;;;3.13;;
31128;SDS011;17777;48.770;8.944;2023-12-07T03:29:31;4.20;;;3.47;;
31128;SDS011;17777;48.770;8.944;2023-12-07T03:31:57;4.20;;;3.47;;
31128;SDS011;17777;48.770;8.944;2023-12-07T03:34:23;3.40;;;2.95;;
31128;SDS011;17777;48.770;8.944;2023-12-07T03:36:49;4.15;;;3.10;;
31128;SDS011;17777;48.770;8.944;2023-12-07T03:39:16;3.58;;;3.03;;
31128;SDS011;17777;48.770;8.944;2023-12-07T03:41:44;3.78;;;2.95;;
31128;SDS011;17777;48.770;8.944;2023-12-07T03:44:10;5.22;;;3.20;;
31128;SDS011;17777;48.770;8.944;2023-12-07T03:46:36;7.45;;;3.60;;
31128;SDS011;17777;48.770;8.944;2023-12-07T03:49:01;5.50;;;3.40;;
31128;SDS011;17777;48.770;8.944;2023-12-07T03:51:27;5.68;;;3.40;;
31128;SDS011;17777;48.770;8.944;2023-12-07T03:53:54;4.47;;;3.17;;
31128;SDS011;17777;48.770;8.944;2023-12-07T03:56:28;4.18;;;3.60;;
31128;SDS011;17777;48.770;8.944;2023-12-07T03:58:55;3.45;;;3.15;;
31128;SDS011;17777;48.770;8.944;2023-12-07T04:01:26;4.78;;;3.47;;
31128;SDS011;17777;48.770;8.944;2023-12-07T04:03:53;4.65;;;3.40;;
31128;SDS011;17777;48.770;8.944;2023-12-07T04:06:21;3.47;;;2.95;;
31128;SDS011;17777;48.770;8.944;2023-12-07T04:08:48;3.85;;;3.03;;
31128;SDS011;17777;48.770;8.944;2023-12-07T04:11:14;5.15;;;3.47;;
31128;SDS011;17777;48.770;8.944;2023-12-07T04:13:40;4.00;;;3.10;;
31128;SDS011;17777;48.770;8.944;2023-12-07T04:16:07;4.85;;;3.15;;
31128;SDS011;17777;48.770;8.944;2023-12-07T04:18:34;3.60;;;3.03;;
31128;SDS011;17777;48.770;8.944;2023-12-07T04:20:59;4.30;;;3.00;;
31128;SDS011;17777;48.770;8.944;2023-12-07T04:23:25;3.25;;;2.88;;
31128;SDS011;17777;48.770;8.944;2023-12-07T04:25:51;3.38;;;2.75;;
31128;SDS011;17777;48.770;8.944;2023-12-07T04:28:17;4.22;;;3.50;;
31128;SDS011;17777;48.770;8.944;2023-12-07T04:30:43;4.68;;;3.47;;
31128;SDS011;17777;48.770;8.944;2023-12-07T04:33:08;3.80;;;3.15;;
31128;SDS011;17777;48.770;8.944;2023-12-07T04:35:34;4.40;;;2.92;;
31128;SDS011;17777;48.770;8.944;2023-12-07T04:38:00;4.55;;;3.08;;
31128;SDS011;17777;48.770;8.944;2023-12-07T04:40:26;5.07;;;3.15;;
31128;SDS011;17777;48.770;8.944;2023-12-07T04:42:52;3.92;;;3.17;;
31128;SDS011;17777;48.770;8.944;2023-12-07T04:45:18;4.50;;;3.30;;
31128;SDS011;17777;48.770;8.944;2023-12-07T04:47:44;4.30;;;3.10;;
31128;SDS011;17777;48.770;8.944;2023-12-07T04:50:10;4.82;;;3.33;;
31128;SDS011;17777;48.770;8.944;2023-12-07T04:52:36;4.93;;;3.47;;
31128;SDS011;17777;48.770;8.944;2023-12-07T04:55:03;4.75;;;3.40;;
31128;SDS011;17777;48.770;8.944;2023-12-07T04:57:31;3.78;;;2.88;;
31128;SDS011;17777;48.770;8.944;2023-12-07T05:00:02;4.38;;;3.33;;
31128;SDS011;17777;48.770;8.944;2023-12-07T05:02:31;3.60;;;3.03;;
31128;SDS011;17777;48.770;8.944;2023-12-07T05:04:58;4.88;;;3.38;;
31128;SDS011;17777;48.770;8.944;2023-12-07T05:07:23;5.05;;;2.95;;
31128;SDS011;17777;48.770;8.944;2023-12-07T05:09:49;5.93;;;3.58;;
31128;SDS011;17777;48.770;8.944;2023-12-07T05:12:18;6.63;;;3.90;;
31128;SDS011;17777;48.770;8.944;2023-12-07T05:14:44;5.55;;;3.20;;
31128;SDS011;17777;48.770;8.944;2023-12-07T05:17:10;5.28;;;4.07;;
31128;SDS011;17777;48.770;8.944;2023-12-07T05:19:35;4.80;;;3.72;;
31128;SDS011;17777;48.770;8.944;2023-12-07T05:22:01;4.50;;;3.40;;
31128;SDS011;17777;48.770;8.944;2023-12-07T05:24:27;4.90;;;3.58;;
31128;SDS011;17777;48.770;8.944;2023-12-07T05:26:53;5.55;;;3.70;;
31128;SDS011;17777;48.770;8.944;2023-12-07T05:29:19;4.55;;;3.55;;
31128;SDS011;17777;48.770;8.944;2023-12-07T05:31:45;3.97;;;3.53;;
31128;SDS011;17777;48.770;8.944;2023-12-07T05:34:15;3.78;;;3.35;;
31128;SDS011;17777;48.770;8.944;2023-12-07T05:36:42;4.15;;;3.58;;
31128;SDS011;17777;48.770;8.944;2023-12-07T05:39:08;4.60;;;3.40;;
31128;SDS011;17777;48.770;8.944;2023-12-07T05:41:34;5.22;;;3.55;;
31128;SDS011;17777;48.770;8.944;2023-12-07T05:44:00;4.90;;;3.50;;
31128;SDS011;17777;48.770;8.944;2023-12-07T05:46:25;4.10;;;3.20;;
31128;SDS011;17777;48.770;8.944;2023-12-07T05:48:52;4.32;;;3.28;;
31128;SDS011;17777;48.770;8.944;2023-12-07T05:51:18;4.72;;;3.15;;
31128;SDS011;17777;48.770;8.944;2023-12-07T05:53:45;5.75;;;3.92;;
31128;SDS011;17777;48.770;8.944;2023-12-07T05:56:11;6.03;;;3.92;;
31128;SDS011;17777;48.770;8.944;2023-12-07T05:58:37;4.68;;;3.45;;
31128;SDS011;17777;48.770;8.944;2023-12-07T06:01:03;6.05;;;4.20;;
31128;SDS011;17777;48.770;8.944;2023-12-07T06:03:30;5.07;;;3.90;;
31128;SDS011;17777;48.770;8.944;2023-12-07T06:05:57;4.85;;;3.70;;
31128;SDS011;17777;48.770;8.944;2023-12-07T06:08:23;4.65;;;3.88;;
31128;SDS011;17777;48.770;8.944;2023-12-07T06:10:49;4.65;;;3.60;;
31128;SDS011;17777;48.770;8.944;2023-12-07T06:13:14;4.57;;;3.85;;
31128;SDS011;17777;48.770;8.944;2023-12-07T06:15:40;7.93;;;3.88;;
31128;SDS011;17777;48.770;8.944;2023-12-07T06:18:06;5.07;;;3.72;;
31128;SDS011;17777;48.770;8.944;2023-12-07T06:20:32;4.25;;;2.83;;
31128;SDS011;17777;48.770;8.944;2023-12-07T06:22:58;3.72;;;3.17;;
31128;SDS011;17777;48.770;8.944;2023-12-07T06:25:24;4.30;;;3.63;;
31128;SDS011;17777;48.770;8.944;2023-12-07T06:27:50;6.55;;;4.35;;
31128;SDS011;17777;48.770;8.944;2023-12-07T06:30:16;5.78;;;4.07;;
31128;SDS011;17777;48.770;8.944;2023-12-07T06:32:43;4.35;;;3.55;;
31128;SDS011;17777;48.770;8.944;2023-12-07T06:35:11;5.20;;;3.63;;
31128;SDS011;17777;48.770;8.944;2023-12-07T06:37:37;5.30;;;3.85;;
31128;SDS011;17777;48.770;8.944;2023-12-07T06:40:04;6.82;;;4.10;;
31128;SDS011;17777;48.770;8.944;2023-12-07T06:42:34;6.15;;;4.60;;
31128;SDS011;17777;48.770;8.944;2023-12-07T06:45:01;4.70;;;3.92;;
31128;SDS011;17777;48.770;8.944;2023-12-07T06:47:27;7.03;;;4.60;;
31128;SDS011;17777;48.770;8.944;2023-12-07T06:49:53;7.57;;;3.92;;
31128;SDS011;17777;48.770;8.944;2023-12-07T06:52:21;6.13;;;4.53;;
31128;SDS011;17777;48.770;8.944;2023-12-07T06:54:46;5.90;;;4.43;;
31128;SDS011;17777;48.770;8.944;2023-12-07T06:57:12;7.80;;;4.50;;
31128;SDS011;17777;48.770;8.944;2023-12-07T06:59:38;5.25;;;3.97;;
31128;SDS011;17777;48.770;8.944;2023-12-07T07:02:06;5.97;;;4.22;;
31128;SDS011;17777;48.770;8.944;2023-12-07T07:04:32;5.82;;;4.15;;
31128;SDS011;17777;48.770;8.944;2023-12-07T07:06:58;7.35;;;4.10;;
31128;SDS011;17777;48.770;8.944;2023-12-07T07:09:23;6.13;;;4.28;;
31128;SDS011;17777;48.770;8.944;2023-12-07T07:11:50;8.57;;;4.43;;
31128;SDS011;17777;48.770;8.944;2023-12-07T07:14:16;7.07;;;4.97;;
31128;SDS011;17777;48.770;8.944;2023-12-07T07:16:42;6.65;;;4.20;;
31128;SDS011;17777;48.770;8.944;2023-12-07T07:19:08;7.28;;;4.55;;
31128;SDS011;17777;48.770;8.944;2023-12-07T07:21:35;8.02;;;5.05;;
31128;SDS011;17777;48.770;8.944;2023-12-07T07:24:01;5.78;;;4.10;;
31128;SDS011;17777;48.770;8.944;2023-12-07T07:26:27;6.97;;;4.57;;
31128;SDS011;17777;48.770;8.944;2023-12-07T07:28:53;6.20;;;4.65;;
31128;SDS011;17777;48.770;8.944;2023-12-07T07:31:18;5.93;;;4.32;;
31128;SDS011;17777;48.770;8.944;2023-12-07T07:33:45;6.47;;;4.80;;
31128;SDS011;17777;48.770;8.944;2023-12-07T07:36:14;6.60;;;4.82;;
31128;SDS011;17777;48.770;8.944;2023-12-07T07:38:40;5.85;;;4.70;;
31128;SDS011;17777;48.770;8.944;2023-12-07T07:41:07;8.68;;;5.03;;
31128;SDS011;17777;48.770;8.944;2023-12-07T07:43:33;8.27;;;5.45;;
31128;SDS011;17777;48.770;8.944;2023-12-07T07:46:02;8.48;;;4.85;;
31128;SDS011;17777;48.770;8.944;2023-12-07T07:48:29;7.32;;;4.65;;
31128;SDS011;17777;48.770;8.944;2023-12-07T07:50:55;11.75;;;5.40;;
31128;SDS011;17777;48.770;8.944;2023-12-07T07:53:22;8.30;;;6.00;;
31128;SDS011;17777;48.770;8.944;2023-12-07T07:55:48;8.00;;;5.60;;
31128;SDS011;17777;48.770;8.944;2023-12-07T07:58:14;6.47;;;5.03;;
31128;SDS011;17777;48.770;8.944;2023-12-07T08:00:39;7.35;;;5.35;;
31128;SDS011;17777;48.770;8.944;2023-12-07T08:03:05;5.65;;;4.32;;
31128;SDS011;17777;48.770;8.944;2023-12-07T08:05:31;7.18;;;5.40;;
31128;SDS011;17777;48.770;8.944;2023-12-07T08:07:58;7.43;;;4.70;;
31128;SDS011;17777;48.770;8.944;2023-12-07T08:10:24;6.55;;;5.03;;
31128;SDS011;17777;48.770;8.944;2023-12-07T08:12:50;6.00;;;4.47;;
31128;SDS011;17777;48.770;8.944;2023-12-07T08:15:15;6.80;;;4.90;;
31128;SDS011;17777;48.770;8.944;2023-12-07T08:17:41;8.20;;;5.20;;
31128;SDS011;17777;48.770;8.944;2023-12-07T08:20:08;7.53;;;4.80;;
31128;SDS011;17777;48.770;8.944;2023-12-07T08:22:38;6.68;;;5.05;;
31128;SDS011;17777;48.770;8.944;2023-12-07T08:25:06;6.45;;;5.03;;
31128;SDS011;17777;48.770;8.944;2023-12-07T08:27:33;6.30;;;4.63;;
31128;SDS011;17777;48.770;8.944;2023-12-07T08:29:59;6.55;;;4.68;;
31128;SDS011;17777;48.770;8.944;2023-12-07T08:32:26;6.60;;;4.88;;
31128;SDS011;17777;48.770;8.944;2023-12-07T08:34:52;7.95;;;5.15;;
31128;SDS011;17777;48.770;8.944;2023-12-07T08:37:18;9.15;;;5.43;;
31128;SDS011;17777;48.770;8.944;2023-12-07T08:39:44;6.70;;;4.95;;
31128;SDS011;17777;48.770;8.944;2023-12-07T08:42:10;6.97;;;5.10;;
31128;SDS011;17777;48.770;8.944;2023-12-07T08:44:36;9.38;;;5.28;;
31128;SDS011;17777;48.770;8.944;2023-12-07T08:47:02;7.03;;;5.07;;
31128;SDS011;17777;48.770;8.944;2023-12-07T08:49:29;9.27;;;4.57;;
31128;SDS011;17777;48.770;8.944;2023-12-07T08:51:55;6.20;;;4.85;;
31128;SDS011;17777;48.770;8.944;2023-12-07T08:54:21;6.55;;;4.65;;
31128;SDS011;17777;48.770;8.944;2023-12-07T08:56:47;6.65;;;4.97;;
31128;SDS011;17777;48.770;8.944;2023-12-07T08:59:13;7.72;;;4.93;;
31128;SDS011;17777;48.770;8.944;2023-12-07T09:01:39;7.45;;;5.20;;
31128;SDS011;17777;48.770;8.944;2023-12-07T09:04:05;8.10;;;5.63;;
31128;SDS011;17777;48.770;8.944;2023-12-07T09:06:31;7.38;;;4.68;;
31128;SDS011;17777;48.770;8.944;2023-12-07T09:08:57;7.25;;;4.88;;
31128;SDS011;17777;48.770;8.944;2023-12-07T09:11:22;6.10;;;4.78;;
31128;SDS011;17777;48.770;8.944;2023-12-07T09:13:49;5.70;;;4.45;;
31128;SDS011;17777;48.770;8.944;2023-12-07T09:16:15;7.28;;;5.40;;
31128;SDS011;17777;48.770;8.944;2023-12-07T09:18:41;6.85;;;4.80;;
31128;SDS011;17777;48.770;8.944;2023-12-07T09:21:08;8.85;;;5.18;;
31128;SDS011;17777;48.770;8.944;2023-12-07T09:23:34;9.68;;;5.65;;
31128;SDS011;17777;48.770;8.944;2023-12-07T09:26:00;6.63;;;5.05;;
31128;SDS011;17777;48.770;8.944;2023-12-07T09:28:26;7.97;;;5.45;;
31128;SDS011;17777;48.770;8.944;2023-12-07T09:30:52;6.95;;;5.35;;
31128;SDS011;17777;48.770;8.944;2023-12-07T09:33:17;7.75;;;5.53;;
31128;SDS011;17777;48.770;8.944;2023-12-07T09:35:44;7.90;;;5.47;;
31128;SDS011;17777;48.770;8.944;2023-12-07T09:38:09;6.50;;;5.05;;
31128;SDS011;17777;48.770;8.944;2023-12-07T09:40:35;7.72;;;5.78;;
31128;SDS011;17777;48.770;8.944;2023-12-07T09:43:01;7.70;;;5.18;;
31128;SDS011;17777;48.770;8.944;2023-12-07T09:45:27;7.32;;;5.53;;
31128;SDS011;17777;48.770;8.944;2023-12-07T09:47:53;5.93;;;4.68;;
31128;SDS011;17777;48.770;8.944;2023-12-07T09:50:20;7.97;;;4.93;;
31128;SDS011;17777;48.770;8.944;2023-12-07T09:52:52;7.28;;;5.13;;
31128;SDS011;17777;48.770;8.944;2023-12-07T09:55:21;6.00;;;4.82;;
31128;SDS011;17777;48.770;8.944;2023-12-07T09:57:48;5.50;;;4.30;;
31128;SDS011;17777;48.770;8.944;2023-12-07T10:00:15;7.65;;;4.88;;
31128;SDS011;17777;48.770;8.944;2023-12-07T10:02:44;5.32;;;4.22;;
31128;SDS011;17777;48.770;8.944;2023-12-07T10:05:11;9.40;;;4.82;;
31128;SDS011;17777;48.770;8.944;2023-12-07T10:07:41;6.43;;;4.57;;
31128;SDS011;17777;48.770;8.944;2023-12-07T10:10:09;7.55;;;4.40;;
31128;SDS011;17777;48.770;8.944;2023-12-07T10:12:40;6.50;;;4.80;;
31128;SDS011;17777;48.770;8.944;2023-12-07T10:15:24;7.53;;;4.80;;
31128;SDS011;17777;48.770;8.944;2023-12-07T10:17:57;6.32;;;4.63;;
31128;SDS011;17777;48.770;8.944;2023-12-07T10:20:26;5.30;;;4.43;;
31128;SDS011;17777;48.770;8.944;2023-12-07T10:23:00;5.45;;;4.38;;
31128;SDS011;17777;48.770;8.944;2023-12-07T10:25:35;6.57;;;4.32;;
31128;SDS011;17777;48.770;8.944;2023-12-07T10:28:09;7.50;;;4.97;;
31128;SDS011;17777;48.770;8.944;2023-12-07T10:30:37;6.72;;;5.20;;
31128;SDS011;17777;48.770;8.944;2023-12-07T10:33:06;5.75;;;4.38;;
31128;SDS011;17777;48.770;8.944;2023-12-07T10:35:33;5.93;;;4.55;;
31128;SDS011;17777;48.770;8.944;2023-12-07T10:38:03;8.82;;;4.90;;
31128;SDS011;17777;48.770;8.944;2023-12-07T10:40:30;7.40;;;4.95;;
31128;SDS011;17777;48.770;8.944;2023-12-07T10:42:56;6.32;;;4.82;;
31128;SDS011;17777;48.770;8.944;2023-12-07T10:45:28;5.55;;;4.07;;
31128;SDS011;17777;48.770;8.944;2023-12-07T10:48:03;6.38;;;4.63;;
31128;SDS011;17777;48.770;8.944;2023-12-07T10:50:35;6.88;;;4.57;;
31128;SDS011;17777;48.770;8.944;2023-12-07T10:55:55;7.95;;;4.43;;
31128;SDS011;17777;48.770;8.944;2023-12-07T10:58:25;5.65;;;4.20;;
31128;SDS011;17777;48.770;8.944;2023-12-07T11:00:55;5.28;;;4.45;;
31128;SDS011;17777;48.770;8.944;2023-12-07T11:03:22;4.93;;;3.88;;
31128;SDS011;17777;48.770;8.944;2023-12-07T11:05:49;6.50;;;4.85;;
31128;SDS011;17777;48.770;8.944;2023-12-07T11:08:27;6.00;;;4.18;;
31128;SDS011;17777;48.770;8.944;2023-12-07T11:11:16;5.78;;;4.47;;
31128;SDS011;17777;48.770;8.944;2023-12-07T11:13:59;5.47;;;4.10;;
31128;SDS011;17777;48.770;8.944;2023-12-07T11:16:36;6.50;;;4.03;;
31128;SDS011;17777;48.770;8.944;2023-12-07T11:21:54;4.80;;;3.33;;
31128;SDS011;17777;48.770;8.944;2023-12-07T11:24:24;6.85;;;3.97;;
31128;SDS011;17777;48.770;8.944;2023-12-07T11:26:53;5.60;;;3.63;;
31128;SDS011;17777;48.770;8.944;2023-12-07T11:29:21;7.38;;;3.80;;
31128;SDS011;17777;48.770;8.944;2023-12-07T11:31:50;7.43;;;3.65;;
31128;SDS011;17777;48.770;8.944;2023-12-07T11:34:54;5.28;;;3.22;;
31128;SDS011;17777;48.770;8.944;2023-12-07T11:37:14;6.38;;;3.08;;
31128;SDS011;17777;48.770;8.944;2023-12-07T11:39:42;4.03;;;3.08;;
31128;SDS011;17777;48.770;8.944;2023-12-07T11:42:11;5.45;;;3.25;;
31128;SDS011;17777;48.770;8.944;2023-12-07T11:44:44;4.63;;;3.33;;
31128;SDS011;17777;48.770;8.944;2023-12-07T11:47:20;4.78;;;3.60;;
31128;SDS011;17777;48.770;8.944;2023-12-07T11:49:46;4.15;;;3.22;;
31128;SDS011;17777;48.770;8.944;2023-12-07T11:52:13;3.78;;;2.92;;
31128;SDS011;17777;48.770;8.944;2023-12-07T11:54:47;4.65;;;3.13;;
31128;SDS011;17777;48.770;8.944;2023-12-07T11:57:15;3.38;;;2.53;;
31128;SDS011;17777;48.770;8.944;2023-12-07T11:59:45;5.22;;;2.33;;
31128;SDS011;17777;48.770;8.944;2023-12-07T12:02:13;2.30;;;1.92;;
31128;SDS011;17777;48.770;8.944;2023-12-07T12:04:39;2.03;;;1.63;;
31128;SDS011;17777;48.770;8.944;2023-12-07T12:07:06;2.17;;;1.88;;
31128;SDS011;17777;48.770;8.944;2023-12-07T12:09:32;3.33;;;2.15;;
31128;SDS011;17777;48.770;8.944;2023-12-07T12:11:59;2.55;;;1.88;;
31128;SDS011;17777;48.770;8.944;2023-12-07T12:14:25;2.45;;;2.03;;
31128;SDS011;17777;48.770;8.944;2023-12-07T12:16:53;2.70;;;2.05;;
31128;SDS011;17777;48.770;8.944;2023-12-07T12:19:21;3.40;;;2.15;;
31128;SDS011;17777;48.770;8.944;2023-12-07T12:21:49;2.05;;;1.80;;
31128;SDS011;17777;48.770;8.944;2023-12-07T12:24:15;2.97;;;2.00;;
31128;SDS011;17777;48.770;8.944;2023-12-07T12:26:42;2.20;;;1.83;;
31128;SDS011;17777;48.770;8.944;2023-12-07T12:29:09;2.55;;;2.00;;
31128;SDS011;17777;48.770;8.944;2023-12-07T12:31:37;1.77;;;1.52;;
31128;SDS011;17777;48.770;8.944;2023-12-07T12:34:06;2.80;;;1.77;;
31128;SDS011;17777;48.770;8.944;2023-12-07T12:36:34;3.13;;;1.50;;
31128;SDS011;17777;48.770;8.944;2023-12-07T12:39:00;2.78;;;1.55;;
31128;SDS011;17777;48.770;8.944;2023-12-07T12:41:27;2.95;;;1.40;;
31128;SDS011;17777;48.770;8.944;2023-12-07T12:43:56;1.95;;;1.70;;
31128;SDS011;17777;48.770;8.944;2023-12-07T12:46:22;2.30;;;1.67;;
31128;SDS011;17777;48.770;8.944;2023-12-07T12:48:56;1.73;;;1.40;;
31128;SDS011;17777;48.770;8.944;2023-12-07T12:51:24;1.50;;;1.40;;
31128;SDS011;17777;48.770;8.944;2023-12-07T12:53:52;1.58;;;1.48;;
31128;SDS011;17777;48.770;8.944;2023-12-07T12:56:20;1.98;;;1.48;;
31128;SDS011;17777;48.770;8.944;2023-12-07T12:58:50;1.58;;;1.40;;
31128;SDS011;17777;48.770;8.944;2023-12-07T13:01:17;1.27;;;1.10;;
31128;SDS011;17777;48.770;8.944;2023-12-07T13:03:46;1.77;;;1.40;;
31128;SDS011;17777;48.770;8.944;2023-12-07T13:06:13;1.52;;;1.25;;
31128;SDS011;17777;48.770;8.944;2023-12-07T13:08:40;2.72;;;1.27;;
31128;SDS011;17777;48.770;8.944;2023-12-07T13:11:08;2.40;;;1.55;;
31128;SDS011;17777;48.770;8.944;2023-12-07T13:13:34;3.60;;;1.35;;
31128;SDS011;17777;48.770;8.944;2023-12-07T13:16:00;1.88;;;1.70;;
31128;SDS011;17777;48.770;8.944;2023-12-07T13:18:26;1.60;;;1.45;;
31128;SDS011;17777;48.770;8.944;2023-12-07T13:20:53;1.73;;;1.50;;
31128;SDS011;17777;48.770;8.944;2023-12-07T13:23:18;1.38;;;1.17;;
31128;SDS011;17777;48.770;8.944;2023-12-07T13:25:45;1.65;;;1.50;;
31128;SDS011;17777;48.770;8.944;2023-12-07T13:28:12;1.77;;;1.30;;
31128;SDS011;17777;48.770;8.944;2023-12-07T13:30:37;1.88;;;1.30;;
31128;SDS011;17777;48.770;8.944;2023-12-07T13:33:04;1.80;;;1.42;;
31128;SDS011;17777;48.770;8.944;2023-12-07T13:35:30;1.40;;;1.30;;
31128;SDS011;17777;48.770;8.944;2023-12-07T13:37:58;1.33;;;1.10;;
31128;SDS011;17777;48.770;8.944;2023-12-07T13:40:24;1.55;;;1.40;;
31128;SDS011;17777;48.770;8.944;2023-12-07T13:42:51;2.08;;;1.80;;
31128;SDS011;17777;48.770;8.944;2023-12-07T13:45:17;1.40;;;1.30;;
31128;SDS011;17777;48.770;8.944;2023-12-07T13:47:43;3.70;;;1.60;;
31128;SDS011;17777;48.770;8.944;2023-12-07T13:50:09;2.13;;;1.70;;
31128;SDS011;17777;48.770;8.944;2023-12-07T13:52:36;2.30;;;1.60;;
31128;SDS011;17777;48.770;8.944;2023-12-07T13:55:03;2.45;;;1.63;;
31128;SDS011;17777;48.770;8.944;2023-12-07T13:57:30;1.88;;;1.60;;
31128;SDS011;17777;48.770;8.944;2023-12-07T13:59:56;3.80;;;1.92;;
31128;SDS011;17777;48.770;8.944;2023-12-07T14:02:22;2.35;;;1.50;;
31128;SDS011;17777;48.770;8.944;2023-12-07T14:04:48;1.52;;;1.25;;
31128;SDS011;17777;48.770;8.944;2023-12-07T14:07:15;3.22;;;1.70;;
31128;SDS011;17777;48.770;8.944;2023-12-07T14:09:49;1.83;;;1.55;;
31128;SDS011;17777;48.770;8.944;2023-12-07T14:12:17;1.50;;;1.40;;
31128;SDS011;17777;48.770;8.944;2023-12-07T14:14:44;2.20;;;1.65;;
31128;SDS011;17777;48.770;8.944;2023-12-07T14:17:12;1.90;;;1.60;;
31128;SDS011;17777;48.770;8.944;2023-12-07T14:19:39;4.35;;;2.10;;
31128;SDS011;17777;48.770;8.944;2023-12-07T14:22:06;2.83;;;1.70;;
31128;SDS011;17777;48.770;8.944;2023-12-07T14:24:35;3.05;;;1.50;;
31128;SDS011;17777;48.770;8.944;2023-12-07T14:27:02;1.60;;;1.27;;
31128;SDS011;17777;48.770;8.944;2023-12-07T14:29:29;1.98;;;1.42;;
31128;SDS011;17777;48.770;8.944;2023-12-07T14:31:57;3.83;;;1.80;;
31128;SDS011;17777;48.770;8.944;2023-12-07T14:34:23;1.25;;;1.13;;
31128;SDS011;17777;48.770;8.944;2023-12-07T14:36:52;2.88;;;1.80;;
31128;SDS011;17777;48.770;8.944;2023-12-07T14:39:18;2.42;;;1.73;;
31128;SDS011;17777;48.770;8.944;2023-12-07T14:41:48;5.47;;;1.30;;
31128;SDS011;17777;48.770;8.944;2023-12-07T14:44:18;2.50;;;1.55;;
31128;SDS011;17777;48.770;8.944;2023-12-07T14:46:44;1.35;;;1.25;;
31128;SDS011;17777;48.770;8.944;2023-12-07T14:49:12;2.60;;;1.52;;
31128;SDS011;17777;48.770;8.944;2023-12-07T14:51:42;1.58;;;1.15;;
31128;SDS011;17777;48.770;8.944;2023-12-07T14:54:08;1.85;;;1.60;;